Time;durP1;ratioP1;P1;durP2;ratioP2;P2;SDS_P1;SDS_P2;PMS_P1;PMS_P2;Temp;Humidity;BMP_temperature;BMP_pressure;BME280_temperature;BME280_humidity;BME280_pressure;Samples;Min_cycle;Max_cycle;Signal;HPM_P1;HPM_P2
2022/07/06 00:01:27;;;;;;;5.15;1.65;;;16.70;99.90;;;16.17;100.00;98214.38;5041638;28;20080;-66
2022/07/06 00:03:54;;;;;;;5.55;1.55;;;16.80;99.90;;;16.08;100.00;98220.13;5041640;28;20099;-65
2022/07/06 00:06:22;;;;;;;4.97;1.70;;;16.80;99.90;;;15.99;100.00;98220.63;5042352;28;20210;-66
2022/07/06 00:08:50;;;;;;;6.35;1.67;;;16.80;99.90;;;15.89;100.00;98225.50;5042743;28;20077;-67
2022/07/06 00:11:17;;;;;;;4.45;1.90;;;16.60;99.90;;;15.88;100.00;98223.81;5042904;28;20095;-67
2022/07/06 00:13:44;;;;;;;6.88;1.98;;;16.60;99.90;;;15.70;100.00;98230.84;5042602;28;20107;-66
2022/07/06 00:16:11;;;;;;;8.73;2.05;;;16.40;99.90;;;15.65;100.00;98232.88;5038795;28;20171;-65
2022/07/06 00:18:38;;;;;;;5.15;2.08;;;16.40;99.90;;;15.81;100.00;98238.16;5039791;28;20076;-66
2022/07/06 00:21:05;;;;;;;6.65;1.65;;;16.40;99.90;;;15.64;100.00;98233.78;5040465;28;20051;-65
2022/07/06 00:23:32;;;;;;;5.78;2.00;;;16.30;99.90;;;15.63;100.00;98234.72;5039717;28;20072;-67
2022/07/06 00:25:59;;;;;;;3.72;1.42;;;16.30;99.90;;;15.53;100.00;98236.97;5041305;28;20064;-65
2022/07/06 00:28:26;;;;;;;5.80;1.75;;;16.30;99.90;;;15.68;100.00;98235.31;5039545;28;20569;-65
2022/07/06 00:30:54;;;;;;;5.07;1.90;;;16.30;99.90;;;15.66;100.00;98229.31;5039933;28;20080;-66
2022/07/06 00:33:21;;;;;;;8.07;1.80;;;16.30;99.90;;;15.67;100.00;98229.25;5042035;28;20041;-63
2022/07/06 00:35:49;;;;;;;4.78;1.70;;;16.20;99.90;;;15.55;100.00;98235.09;5038045;28;20055;-64
2022/07/06 00:38:16;;;;;;;5.72;1.77;;;16.20;99.90;;;15.51;100.00;98237.97;5041772;28;20080;-66
2022/07/06 00:40:43;;;;;;;5.22;2.17;;;16.10;99.90;;;15.42;100.00;98244.53;5039336;28;20136;-64
2022/07/06 00:43:10;;;;;;;4.53;2.00;;;16.10;99.90;;;15.38;100.00;98248.22;5040211;28;20081;-66
2022/07/06 00:45:37;;;;;;;6.05;1.85;;;16.00;99.90;;;15.17;100.00;98248.41;5038141;28;20108;-66
2022/07/06 00:48:04;;;;;;;5.68;1.90;;;16.00;99.90;;;15.13;100.00;98243.41;5038946;28;20057;-64
2022/07/06 00:50:34;;;;;;;5.03;1.52;;;15.90;99.90;;;15.12;100.00;98242.56;5054667;28;20675;-65
2022/07/06 00:53:05;;;;;;;4.70;1.70;;;15.90;99.90;;;14.82;100.00;98235.31;5036562;28;20128;-65
2022/07/06 00:55:40;;;;;;;5.63;2.00;;;15.90;99.90;;;14.92;100.00;98238.31;5038838;28;20583;-65
2022/07/06 00:58:10;;;;;;;3.60;1.30;;;15.80;99.90;;;14.83;100.00;98237.00;5035347;28;20578;-65
2022/07/06 01:00:38;;;;;;;3.13;1.50;;;;;;;14.82;100.00;98237.06;5038057;28;20045;-64
2022/07/06 01:03:05;;;;;;;6.70;1.55;;;15.70;99.90;;;14.85;100.00;98234.31;5037995;28;20449;-65
2022/07/06 01:05:32;;;;;;;4.95;1.88;;;15.60;99.90;;;14.82;100.00;98227.47;5037057;28;20052;-66
2022/07/06 01:08:00;;;;;;;6.80;2.50;;;15.40;99.90;;;14.72;100.00;98231.44;5044003;28;20516;-65
2022/07/06 01:10:27;;;;;;;4.38;1.50;;;15.30;99.90;;;14.89;100.00;98233.22;5045415;28;20408;-65
2022/07/06 01:12:56;;;;;;;7.65;1.92;;;15.40;99.90;;;14.94;100.00;98233.00;5043829;28;20564;-67
2022/07/06 01:15:25;;;;;;;8.50;2.75;;;15.40;99.90;;;14.87;100.00;98232.47;5041465;28;20075;-64
2022/07/06 01:17:52;;;;;;;6.88;2.60;;;15.40;99.90;;;14.94;100.00;98238.22;5045967;28;20502;-66
2022/07/06 01:20:25;;;;;;;4.10;2.00;;;15.40;99.90;;;14.96;100.00;98233.78;5040555;28;20037;-65
2022/07/06 01:22:54;;;;;;;3.85;1.70;;;15.50;99.90;;;14.89;100.00;98233.22;5042879;28;20060;-67
2022/07/06 01:25:21;;;;;;;5.22;2.00;;;15.50;99.90;;;14.87;100.00;98229.88;5040962;28;20084;-66
2022/07/06 01:27:49;;;;;;;5.68;2.00;;;15.50;99.90;;;14.93;100.00;98226.09;5045448;28;20048;-65
2022/07/06 01:30:18;;;;;;;7.40;2.20;;;15.40;99.90;;;14.90;100.00;98224.47;5045716;28;20207;-66
2022/07/06 01:32:46;;;;;;;4.70;1.80;;;15.50;99.90;;;14.95;100.00;98226.88;5043350;28;20075;-65
2022/07/06 01:35:15;;;;;;;8.90;2.65;;;15.50;99.90;;;14.89;100.00;98228.00;5043601;28;20587;-65
2022/07/06 01:37:43;;;;;;;7.25;2.28;;;15.50;99.90;;;14.88;100.00;98226.31;5042582;28;20416;-65
2022/07/06 01:40:11;;;;;;;6.07;2.83;;;15.40;99.90;;;14.83;100.00;98223.94;5041969;28;20053;-65
2022/07/06 01:42:39;;;;;;;4.50;2.00;;;15.40;99.90;;;14.85;100.00;98229.94;5044102;28;20420;-65
2022/07/06 01:45:08;;;;;;;3.92;1.92;;;15.40;99.90;;;14.85;100.00;98223.88;5043573;28;20041;-66
2022/07/06 01:47:35;;;;;;;7.85;2.00;;;15.40;99.90;;;14.87;100.00;98229.00;5041407;28;20075;-65
2022/07/06 01:50:07;;;;;;;7.47;2.28;;;15.40;99.90;;;14.82;100.00;98227.47;5047505;28;20094;-63
2022/07/06 01:52:35;;;;;;;5.95;1.90;;;15.40;99.90;;;14.81;100.00;98222.31;5041617;28;20049;-66
2022/07/06 01:55:02;;;;;;;5.07;1.80;;;15.30;99.90;;;14.84;100.00;98222.16;5040285;28;20045;-65
2022/07/06 01:57:29;;;;;;;5.28;2.03;;;15.30;99.90;;;14.79;100.00;98218.94;5044319;28;20053;-66
2022/07/06 01:59:56;;;;;;;6.53;3.20;;;15.30;99.90;;;14.73;100.00;98222.69;5042456;28;20081;-66
2022/07/06 02:02:23;;;;;;;6.22;1.90;;;15.30;99.90;;;14.68;100.00;98222.06;5042968;28;20549;-66
2022/07/06 02:04:50;;;;;;;6.10;2.17;;;15.20;99.90;;;14.61;100.00;98225.91;5040128;28;20521;-65
2022/07/06 02:07:17;;;;;;;3.97;2.00;;;15.10;99.90;;;14.50;100.00;98226.38;5036886;28;20116;-65
2022/07/06 02:09:44;;;;;;;5.05;2.15;;;15.10;99.90;;;14.49;100.00;98237.75;5041464;28;20117;-66
2022/07/06 02:12:14;;;;;;;4.53;1.75;;;;;;;14.46;100.00;98229.22;5044122;28;20129;-65
2022/07/06 02:14:41;;;;;;;3.67;1.67;;;15.20;99.90;;;14.40;100.00;98230.38;5038648;28;20128;-65
2022/07/06 02:17:08;;;;;;;5.25;1.88;;;15.10;99.90;;;14.35;100.00;98229.75;5044690;28;20944;-66
2022/07/06 02:19:35;;;;;;;5.10;1.70;;;15.10;99.90;;;14.28;100.00;98233.53;5040025;28;20048;-65
2022/07/06 02:22:02;;;;;;;6.15;1.50;;;14.80;99.90;;;14.09;100.00;98231.78;5042017;28;20049;-66
2022/07/06 02:24:29;;;;;;;4.25;1.77;;;14.80;99.90;;;14.10;100.00;98230.91;5041476;28;20535;-64
2022/07/06 02:26:56;;;;;;;4.80;1.77;;;14.70;99.90;;;14.11;100.00;98222.13;5041847;28;20045;-66
2022/07/06 02:29:23;;;;;;;12.45;2.20;;;14.70;99.90;;;14.10;100.00;98220.44;5040511;28;20041;-65
2022/07/06 02:31:50;;;;;;;3.65;2.10;;;14.70;99.90;;;14.03;100.00;98224.28;5043311;28;20132;-66
2022/07/06 02:34:17;;;;;;;5.00;1.85;;;14.60;99.90;;;14.08;100.00;98231.88;5041042;28;20045;-64
2022/07/06 02:36:44;;;;;;;4.22;1.90;;;14.60;99.90;;;14.08;100.00;98227.50;5046773;28;20055;-65
2022/07/06 02:39:11;;;;;;;4.30;2.05;;;14.60;99.90;;;14.10;100.00;98232.66;5040688;28;20076;-66
2022/07/06 02:41:38;;;;;;;4.70;2.30;;;14.60;99.90;;;14.11;100.00;98223.91;5043693;28;20099;-65
2022/07/06 02:44:05;;;;;;;4.85;2.45;;;14.60;99.90;;;14.00;100.00;98225.25;5044178;28;20056;-65
2022/07/06 02:46:32;;;;;;;6.82;2.85;;;14.60;99.90;;;13.98;100.00;98240.13;5041959;28;20488;-65
2022/07/06 02:48:59;;;;;;;8.95;3.13;;;14.60;99.90;;;13.97;100.00;98234.97;5041125;28;20145;-65
2022/07/06 02:51:26;;;;;;;6.95;3.00;;;14.60;99.90;;;13.98;100.00;98234.91;5043905;28;20771;-66
2022/07/06 02:53:53;;;;;;;9.18;3.30;;;14.50;99.90;;;13.95;100.00;98236.81;5040004;28;20514;-64
2022/07/06 02:56:20;;;;;;;6.95;2.78;;;14.50;99.90;;;13.94;100.00;98237.75;5040389;28;20128;-65
2022/07/06 02:58:47;;;;;;;6.93;2.53;;;14.50;99.90;;;13.91;100.00;98238.72;5038179;28;20124;-67
2022/07/06 03:01:14;;;;;;;8.18;2.67;;;14.50;99.90;;;13.79;100.00;98247.09;5041521;28;20045;-65
2022/07/06 03:03:41;;;;;;;8.55;3.20;;;14.50;99.90;;;13.87;100.00;98239.78;5041050;28;20124;-66
2022/07/06 03:06:08;;;;;;;11.02;3.00;;;14.40;99.90;;;13.90;100.00;98246.63;5042293;28;20136;-65
2022/07/06 03:08:35;;;;;;;7.30;2.97;;;14.50;99.90;;;13.83;100.00;98248.66;5040686;28;20560;-66
2022/07/06 03:11:02;;;;;;;10.10;2.67;;;14.50;99.90;;;13.82;100.00;98249.56;5039655;28;20085;-65
2022/07/06 03:13:29;;;;;;;8.43;2.80;;;14.40;99.90;;;13.79;100.00;98257.53;5039953;28;20512;-66
2022/07/06 03:15:57;;;;;;;8.07;3.17;;;14.40;99.90;;;13.71;100.00;98255.28;5038063;28;20040;-65
2022/07/06 03:18:24;;;;;;;8.35;3.05;;;14.30;99.90;;;13.75;100.00;98262.06;5039991;28;20045;-66
2022/07/06 03:20:51;;;;;;;5.75;2.15;;;14.30;99.90;;;13.73;100.00;98266.50;5037686;28;20099;-65
2022/07/06 03:23:19;;;;;;;7.88;2.58;;;14.30;99.90;;;13.76;100.00;98265.50;5040742;28;20094;-65
2022/07/06 03:25:46;;;;;;;9.07;3.05;;;14.30;99.90;;;13.72;100.00;98266.56;5041194;28;20137;-65
2022/07/06 03:28:14;;;;;;;7.75;2.30;;;14.30;99.90;;;13.62;100.00;98260.91;5053982;28;20080;-66
2022/07/06 03:30:41;;;;;;;6.72;2.42;;;14.30;99.90;;;13.66;100.00;98259.00;5040375;28;20066;-65
2022/07/06 03:33:08;;;;;;;7.72;2.88;;;14.30;99.90;;;13.60;100.00;98260.13;5041878;28;20127;-65
2022/07/06 03:35:35;;;;;;;6.53;2.33;;;14.20;99.90;;;13.52;100.00;98257.81;5039684;28;20128;-65
2022/07/06 03:38:02;;;;;;;7.88;2.47;;;14.20;99.90;;;13.49;100.00;98259.75;5036002;28;20132;-66
2022/07/06 03:40:29;;;;;;;8.73;2.53;;;14.20;99.90;;;13.44;100.00;98257.34;5040495;28;20045;-66
2022/07/06 03:42:56;;;;;;;7.07;2.30;;;14.10;99.90;;;13.43;100.00;98260.84;5040346;28;20326;-66
2022/07/06 03:45:23;;;;;;;7.35;2.40;;;14.10;99.90;;;13.34;100.00;98261.22;5036406;28;20520;-67
2022/07/06 03:47:50;;;;;;;4.70;2.13;;;14.00;99.90;;;13.32;100.00;98266.53;5037226;28;20045;-67
2022/07/06 03:50:17;;;;;;;8.00;2.08;;;14.00;99.90;;;13.32;100.00;98266.53;5040020;28;20072;-66
2022/07/06 03:52:44;;;;;;;5.38;1.95;;;14.00;99.90;;;13.29;100.00;98266.66;5038779;28;20525;-66
2022/07/06 03:55:12;;;;;;;5.65;2.05;;;13.90;99.90;;;13.31;100.00;98272.66;5038193;28;20141;-66
2022/07/06 03:57:40;;;;;;;6.88;2.70;;;;;;;13.33;100.00;98270.81;5039941;28;20095;-66
2022/07/06 04:00:09;;;;;;;3.85;1.63;;;14.00;99.90;;;13.31;100.00;98272.66;5038240;28;20060;-66
2022/07/06 04:02:36;;;;;;;7.85;1.77;;;13.90;99.90;;;13.32;100.00;98269.13;5041167;28;20148;-64
2022/07/06 04:05:03;;;;;;;6.15;1.88;;;14.00;99.90;;;13.35;100.00;98266.38;5039861;28;20084;-64
2022/07/06 04:07:30;;;;;;;4.93;1.83;;;14.00;99.90;;;13.38;100.00;98265.41;5036693;28;20068;-66
2022/07/06 04:09:57;;;;;;;4.93;1.50;;;14.00;99.90;;;13.37;100.00;98268.94;5043599;28;20137;-64
2022/07/06 04:12:24;;;;;;;4.82;1.58;;;14.10;99.90;;;13.39;100.00;98280.16;5039772;28;20072;-65
2022/07/06 04:14:52;;;;;;;9.52;1.60;;;14.10;99.90;;;13.47;100.00;98283.28;5041265;28;20876;-65
2022/07/06 04:20:05;;;;;;;4.45;1.27;;;14.10;99.90;;;13.48;100.00;98281.50;5040329;28;20139;-66
2022/07/06 04:22:32;;;;;;;7.80;1.80;;;14.20;99.90;;;13.45;100.00;98284.25;5041508;28;20069;-65
2022/07/06 04:24:59;;;;;;;3.90;1.48;;;14.10;99.90;;;13.53;100.00;98277.78;5040405;28;20073;-64
2022/07/06 04:27:26;;;;;;;7.13;1.65;;;14.20;99.90;;;13.57;100.00;98274.16;5038232;28;20151;-65
2022/07/06 04:29:53;;;;;;;5.80;1.58;;;14.20;99.90;;;13.62;100.00;98288.75;5038619;28;20053;-65
2022/07/06 04:32:20;;;;;;;5.53;1.75;;;14.30;99.90;;;13.58;100.00;98283.66;5036323;28;20136;-68
2022/07/06 04:34:52;;;;;;;4.22;1.50;;;14.30;99.90;;;13.57;100.00;98279.38;5038443;28;20095;-66
2022/07/06 04:37:19;;;;;;;6.85;1.27;;;14.30;99.90;;;13.68;100.00;98288.47;5040249;28;20042;-65
2022/07/06 04:39:46;;;;;;;4.47;1.13;;;14.40;99.90;;;13.75;100.00;98288.16;5040987;28;20182;-65
2022/07/06 04:42:13;;;;;;;4.90;1.20;;;14.40;99.90;;;13.84;100.00;98288.63;5041847;28;20045;-66
2022/07/06 04:44:40;;;;;;;4.13;1.67;;;14.50;99.90;;;13.84;100.00;98292.09;5048270;28;20195;-66
2022/07/06 04:47:07;;;;;;;4.80;1.30;;;14.60;99.90;;;13.85;100.00;98282.53;5044444;28;20100;-65
2022/07/06 04:49:34;;;;;;;3.65;1.40;;;14.70;99.90;;;13.86;100.00;98289.41;5045620;28;20089;-65
2022/07/06 04:52:01;;;;;;;5.18;1.30;;;14.70;99.90;;;13.80;100.00;98288.78;5043881;28;20142;-67
2022/07/06 04:54:28;;;;;;;4.63;1.55;;;14.60;99.90;;;13.78;100.00;98290.63;5041576;28;20568;-67
2022/07/06 04:56:55;;;;;;;3.75;1.30;;;14.60;99.90;;;13.82;100.00;98286.09;5043472;28;20060;-67
2022/07/06 04:59:22;;;;;;;5.45;1.65;;;14.70;99.90;;;13.86;100.00;98289.41;5044309;28;20057;-66
2022/07/06 05:01:49;;;;;;;4.60;1.05;;;14.70;99.90;;;13.99;100.00;98285.34;5043188;28;20164;-66
2022/07/06 05:04:19;;;;;;;3.38;1.20;;;14.80;99.90;;;13.89;100.00;98291.88;5037825;28;20052;-65
2022/07/06 05:06:46;;;;;;;5.55;1.33;;;14.80;99.90;;;13.88;100.00;98296.25;5040313;28;20045;-66
2022/07/06 05:09:14;;;;;;;8.38;1.65;;;14.80;99.90;;;13.94;100.00;98295.16;5040632;28;20081;-67
2022/07/06 05:11:41;;;;;;;5.85;1.38;;;14.80;99.90;;;13.86;100.00;98292.88;5040992;28;20508;-67
2022/07/06 05:14:08;;;;;;;5.63;1.67;;;14.90;99.90;;;13.90;100.00;98297.03;5041019;28;20131;-66
2022/07/06 05:16:35;;;;;;;10.57;1.42;;;14.90;99.90;;;14.05;100.00;98299.88;5038147;28;20144;-65
2022/07/06 05:19:02;;;;;;;3.15;1.30;;;14.90;99.90;;;13.88;100.00;98296.25;5038936;28;20131;-65
2022/07/06 05:21:29;;;;;;;3.67;1.23;;;14.90;99.90;;;14.03;100.00;98297.34;5039800;28;20124;-65
2022/07/06 05:23:56;;;;;;;7.13;1.17;;;14.90;99.90;;;13.92;100.00;98299.59;5048905;28;20145;-66
2022/07/06 05:26:23;;;;;;;7.05;0.95;;;14.90;99.90;;;14.11;100.00;98303.06;5039723;28;20505;-66
2022/07/06 05:28:50;;;;;;;5.03;1.40;;;15.00;99.90;;;14.05;100.00;98286.81;5040992;28;20234;-67
2022/07/06 05:31:17;;;;;;;2.67;0.90;;;15.10;99.90;;;14.11;100.00;98299.59;5038967;28;20131;-66
2022/07/06 05:33:44;;;;;;;3.95;1.00;;;15.00;99.90;;;14.15;100.00;98299.41;5043432;28;20049;-66
2022/07/06 05:36:11;;;;;;;3.90;0.90;;;15.10;99.90;;;14.20;100.00;98294.81;5040895;28;20045;-66
2022/07/06 05:38:38;;;;;;;4.22;1.00;;;15.20;99.90;;;14.27;100.00;98297.16;5037972;28;20538;-66
2022/07/06 05:41:05;;;;;;;4.63;1.00;;;15.20;99.90;;;14.39;100.00;98302.66;5041304;28;20128;-66
2022/07/06 05:43:32;;;;;;;4.10;0.85;;;15.30;99.90;;;14.26;100.00;98295.47;5042817;28;20431;-66
2022/07/06 05:45:59;;;;;;;3.20;0.60;;;15.20;99.90;;;14.32;100.00;98301.25;5038368;28;20071;-65
2022/07/06 05:51:11;;;;;;;3.83;0.77;;;15.20;99.90;;;14.18;100.00;98301.84;5037481;28;20077;-66
2022/07/06 05:53:38;;;;;;;5.97;1.00;;;15.30;99.90;;;14.13;100.00;98297.78;5040789;28;20084;-65
2022/07/06 05:56:05;;;;;;;2.75;0.80;;;15.20;99.90;;;14.19;100.00;98302.72;5036718;28;20134;-65
2022/07/06 05:58:32;;;;;;;2.28;0.73;;;15.30;99.90;;;14.33;100.00;98297.72;5040366;28;20094;-65
2022/07/06 06:00:59;;;;;;;5.72;0.73;;;15.40;99.90;;;14.42;100.00;98299.06;5039348;28;20077;-65
2022/07/06 06:03:27;;;;;;;6.78;1.10;;;15.50;99.90;;;14.41;100.00;98297.34;5039741;28;20077;-65
2022/07/06 06:05:54;;;;;;;6.03;1.10;;;15.50;99.90;;;14.26;100.00;98298.91;5037558;28;20136;-66
2022/07/06 06:08:20;;;;;;;5.03;0.77;;;15.50;99.90;;;14.59;100.00;98287.84;5038358;28;20139;-66
2022/07/06 06:10:48;;;;;;;3.75;0.85;;;15.60;99.90;;;14.43;100.00;98295.50;5042295;28;20053;-65
2022/07/06 06:13:15;;;;;;;3.33;0.80;;;15.60;99.90;;;14.50;100.00;98302.13;5043675;28;20049;-66
2022/07/06 06:15:42;;;;;;;3.00;0.60;;;15.60;99.90;;;14.63;100.00;98303.28;5042483;28;20095;-66
2022/07/06 06:18:09;;;;;;;4.57;1.00;;;15.70;99.90;;;14.81;100.00;98308.56;5036791;28;20422;-65
2022/07/06 06:20:37;;;;;;;6.75;1.10;;;15.70;99.90;;;14.90;100.00;98308.13;5039310;28;20045;-64
2022/07/06 06:23:04;;;;;;;3.15;0.80;;;15.90;99.90;;;14.90;100.00;98312.50;5039297;28;20080;-67
2022/07/06 06:25:37;;;;;;;5.80;1.42;;;15.90;99.90;;;14.83;100.00;98307.56;5056020;28;20072;-65
2022/07/06 06:28:07;;;;;;;4.40;1.10;;;15.90;99.90;;;14.87;100.00;98308.28;5040004;28;20084;-66
2022/07/06 06:30:35;;;;;;;4.95;0.90;;;16.10;99.90;;;14.87;100.00;98313.50;5040121;28;20417;-66
2022/07/06 06:33:12;;;;;;;3.33;0.85;;;16.10;99.90;;;15.05;100.00;98311.75;5046118;28;20139;-66
2022/07/06 06:35:51;;;;;;;6.13;1.23;;;16.10;99.90;;;14.97;100.00;98321.75;5042462;28;20041;-65
2022/07/06 06:38:21;;;;;;;7.88;1.00;;;16.10;99.90;;;14.91;100.00;98319.41;5041929;28;20550;-67
2022/07/06 06:40:48;;;;;;;3.67;1.00;;;16.20;99.90;;;15.05;100.00;98315.22;5037502;28;20045;-66
2022/07/06 06:43:16;;;;;;;3.38;0.90;;;16.20;99.90;;;15.13;100.00;98319.22;5038817;28;20076;-65
2022/07/06 06:45:44;;;;;;;4.53;1.00;;;16.40;99.90;;;15.17;100.00;98320.78;5039529;28;20044;-66
2022/07/06 06:48:11;;;;;;;3.95;1.10;;;16.40;99.90;;;15.43;100.00;98328.16;5039746;28;20061;-65
2022/07/06 06:50:44;;;;;;;5.45;1.10;;;16.40;99.90;;;15.42;100.00;98329.09;5039228;28;20140;-66
2022/07/06 06:53:12;;;;;;;4.40;1.10;;;16.50;99.90;;;15.42;100.00;98336.94;5040798;28;20080;-64
2022/07/06 06:55:39;;;;;;;5.88;1.20;;;16.60;99.90;;;15.58;100.00;98330.94;5037261;28;20044;-66
2022/07/06 06:58:06;;;;;;;9.43;1.13;;;16.70;99.90;;;15.56;100.00;98332.78;5038708;28;20065;-67
2022/07/06 07:00:33;;;;;;;4.68;1.10;;;16.70;99.90;;;15.69;100.00;98324.22;5036316;28;20117;-66
2022/07/06 07:03:00;;;;;;;4.38;1.30;;;16.80;99.90;;;15.71;100.00;98326.78;5038162;28;20045;-66
2022/07/06 07:05:27;;;;;;;3.80;0.98;;;16.90;99.90;;;15.91;100.00;98332.75;5037208;28;20045;-65
2022/07/06 07:07:56;;;;;;;7.13;1.23;;;17.00;99.90;;;16.06;100.00;98326.72;5036647;28;20075;-65
2022/07/06 07:10:30;;;;;;;7.03;1.10;;;17.10;99.90;;;15.87;100.00;98335.56;5043012;28;20049;-65
2022/07/06 07:12:57;;;;;;;7.93;1.63;;;17.20;99.90;;;15.92;100.00;98334.44;5038502;28;20084;-66
2022/07/06 07:15:24;;;;;;;4.93;1.15;;;17.10;99.90;;;15.98;100.00;98336.75;5041180;28;20071;-65
2022/07/06 07:17:51;;;;;;;5.32;1.40;;;17.10;99.90;;;16.05;100.00;98338.13;5038554;28;20374;-65
2022/07/06 07:20:19;;;;;;;4.60;1.10;;;17.20;99.90;;;15.94;100.00;98332.59;5038922;28;20073;-65
2022/07/06 07:22:46;;;;;;;3.30;0.90;;;17.10;99.90;;;16.31;100.00;98341.97;5038771;28;20049;-66
2022/07/06 07:25:13;;;;;;;5.68;1.17;;;17.30;99.90;;;16.44;100.00;98344.78;5026352;28;20137;-66
2022/07/06 07:27:40;;;;;;;4.53;1.10;;;17.50;99.90;;;16.27;100.00;98340.44;5034979;28;20103;-66
2022/07/06 07:30:07;;;;;;;5.13;1.35;;;17.50;99.90;;;16.41;100.00;98350.19;5039102;28;20135;-66
2022/07/06 07:32:34;;;;;;;7.00;1.25;;;17.60;99.90;;;16.00;100.00;98343.59;5040596;28;20056;-65
2022/07/06 07:35:02;;;;;;;6.75;1.23;;;17.30;99.90;;;16.27;100.00;98343.91;5040708;28;20426;-66
2022/07/06 07:37:29;;;;;;;3.75;0.90;;;17.40;99.90;;;16.24;100.00;98345.88;5034942;28;20072;-65
2022/07/06 07:39:56;;;;;;;6.00;1.20;;;17.40;99.90;;;16.54;100.00;98335.50;5039242;28;20055;-65
2022/07/06 07:42:23;;;;;;;4.93;1.20;;;17.60;99.90;;;16.85;100.00;98328.56;5040170;28;20080;-65
2022/07/06 07:44:51;;;;;;;6.35;1.30;;;17.70;99.90;;;16.67;100.00;98328.66;5036355;28;20053;-65
2022/07/06 07:47:18;;;;;;;5.32;1.20;;;18.00;99.90;;;16.93;100.00;98331.63;5042997;28;20107;-65
2022/07/06 07:49:45;;;;;;;5.32;1.23;;;18.00;99.90;;;16.96;100.00;98326.19;5040394;28;20077;-65
2022/07/06 07:52:13;;;;;;;5.70;1.00;;;18.00;99.90;;;17.03;100.00;98331.94;5042144;28;20590;-66
2022/07/06 07:54:39;;;;;;;4.95;1.17;;;18.30;99.90;;;16.97;100.00;98327.03;5039264;28;20041;-66
2022/07/06 07:57:13;;;;;;;8.05;1.35;;;18.10;99.90;;;16.96;100.00;98331.44;5038914;28;20077;-65
2022/07/06 07:59:42;;;;;;;5.55;1.38;;;18.00;99.90;;;16.97;100.00;98338.38;5037508;28;20120;-66
2022/07/06 08:02:08;;;;;;;3.83;1.02;;;18.00;99.90;;;16.93;100.00;98337.69;5037568;28;20077;-65
2022/07/06 08:04:36;;;;;;;2.20;1.00;;;18.20;99.90;;;17.25;100.00;98334.19;5043578;28;20053;-65
2022/07/06 08:07:03;;;;;;;6.65;1.40;;;18.30;99.90;;;17.41;100.00;98329.72;5039391;28;20625;-65
2022/07/06 08:09:30;;;;;;;6.18;1.45;;;18.40;99.90;;;17.28;100.00;98334.00;5041309;28;20041;-66
2022/07/06 08:11:58;;;;;;;5.10;1.00;;;18.40;99.90;;;17.52;100.00;98337.00;5041166;28;20055;-65
2022/07/06 08:14:25;;;;;;;6.22;1.30;;;18.60;99.90;;;17.69;100.00;98338.59;5039561;28;20053;-67
2022/07/06 08:16:52;;;;;;;5.28;1.23;;;18.70;99.90;;;17.68;100.00;98337.75;5039831;28;20128;-65
2022/07/06 08:19:19;;;;;;;4.38;1.20;;;18.70;99.90;;;17.59;100.00;98335.69;5038252;28;20127;-65
2022/07/06 08:21:46;;;;;;;4.70;1.38;;;18.70;99.90;;;17.21;100.00;98325.63;5038598;28;20041;-65
2022/07/06 08:24:14;;;;;;;6.20;1.10;;;18.40;99.90;;;17.60;100.00;98326.03;5038794;28;20132;-65
2022/07/06 08:26:41;;;;;;;6.45;1.23;;;18.50;99.90;;;17.47;100.00;98318.88;5040727;28;20128;-66
2022/07/06 08:29:08;;;;;;;3.13;0.95;;;18.50;99.90;;;17.67;100.00;98325.56;5041682;28;20092;-65
2022/07/06 08:31:35;;;;;;;6.00;1.20;;;18.70;99.90;;;18.32;100.00;98316.44;5035231;28;20044;-65
2022/07/06 08:34:23;;;;;;;2.97;0.90;;;19.10;99.90;;;18.74;100.00;98326.00;5039043;28;20218;-66
2022/07/06 08:36:50;;;;;;;3.78;1.20;;;19.70;99.90;;;18.92;100.00;98325.81;5036065;28;20128;-64
2022/07/06 08:39:17;;;;;;;2.85;0.90;;;19.90;99.90;;;18.76;100.00;98329.38;5037270;28;20204;-64
2022/07/06 08:41:47;;;;;;;3.90;1.10;;;19.90;99.90;;;18.66;100.00;98325.66;5039244;28;20051;-64
2022/07/06 08:44:16;;;;;;;2.85;1.00;;;19.90;99.90;;;18.53;100.00;98330.00;5041610;28;20045;-65
2022/07/06 08:46:44;;;;;;;2.90;1.00;;;19.80;99.90;;;18.55;100.00;98328.13;5033711;28;20459;-65
2022/07/06 08:49:16;;;;;;;5.75;1.05;;;19.70;99.90;;;18.33;100.00;98334.72;5034858;28;20081;-65
2022/07/06 08:51:45;;;;;;;4.78;1.33;;;19.80;99.70;;;18.32;100.00;98338.28;5036379;28;20053;-65
2022/07/06 08:54:12;;;;;;;9.68;1.30;;;19.80;99.40;;;18.53;100.00;98336.09;5042225;28;20091;-65
2022/07/06 08:56:40;;;;;;;6.22;1.20;;;19.70;98.90;;;18.43;100.00;98334.13;5041144;28;20124;-65
2022/07/06 08:59:16;;;;;;;3.60;1.10;;;19.60;99.00;;;18.59;100.00;98330.47;5039307;28;20590;-67
2022/07/06 09:01:47;;;;;;;6.90;1.50;;;19.80;98.70;;;18.35;100.00;98327.56;5035631;28;20125;-65
2022/07/06 09:04:21;;;;;;;3.73;1.13;;;19.70;98.30;;;18.66;100.00;98332.72;5039962;28;20049;-66
2022/07/06 09:06:50;;;;;;;2.80;0.90;;;20.10;98.50;;;18.80;100.00;98330.06;5035660;28;20460;-65
2022/07/06 09:09:23;;;;;;;4.05;1.20;;;20.30;98.00;;;19.45;100.00;98337.22;5040914;28;20087;-65
2022/07/06 09:11:51;;;;;;;3.65;0.75;;;20.50;98.40;;;19.58;100.00;98329.34;5054688;28;20049;-67
2022/07/06 09:14:19;;;;;;;2.90;0.70;;;20.60;97.40;;;19.85;100.00;98329.31;5040312;28;20158;-65
2022/07/06 09:16:51;;;;;;;2.55;0.60;;;20.80;96.30;;;19.79;100.00;98332.34;5034591;28;20057;-66
2022/07/06 09:19:18;;;;;;;4.90;0.85;;;21.00;95.90;;;19.74;100.00;98331.81;5037410;28;20553;-67
2022/07/06 09:21:45;;;;;;;4.22;1.00;;;21.20;95.70;;;19.05;100.00;98321.44;5039203;28;20137;-65
2022/07/06 09:24:13;;;;;;;3.42;0.90;;;21.10;95.10;;;19.66;100.00;98321.78;5036433;28;20504;-67
2022/07/06 09:26:43;;;;;;;3.75;0.80;;;21.10;95.20;;;19.59;100.00;98320.50;5037786;28;20132;-66
2022/07/06 09:29:11;;;;;;;3.38;0.75;;;21.00;94.80;;;20.19;100.00;98324.34;5046057;28;20516;-66
2022/07/06 09:31:38;;;;;;;3.00;0.70;;;21.00;95.60;;;21.03;100.00;98320.13;5039687;28;20470;-66
2022/07/06 09:34:09;;;;;;;1.65;0.47;;;21.40;96.10;;;21.47;100.00;98315.97;5038848;28;20103;-66
2022/07/06 09:36:47;;;;;;;2.13;0.50;;;21.70;93.30;;;21.31;100.00;98317.09;5041722;28;20582;-65
2022/07/06 09:39:26;;;;;;;4.20;0.65;;;21.40;93.60;;;20.75;100.00;98322.09;5043709;28;20045;-67
2022/07/06 09:42:01;;;;;;;1.98;0.40;;;21.40;93.20;;;20.48;100.00;98331.03;5039315;28;20085;-67
2022/07/06 09:44:32;;;;;;;2.92;0.40;;;21.60;92.30;;;21.54;100.00;98329.56;5037094;28;20045;-67
2022/07/06 09:47:08;;;;;;;3.95;0.60;;;22.00;92.20;;;21.62;100.00;98333.31;5035897;28;20439;-67
2022/07/06 09:49:38;;;;;;;2.33;0.50;;;22.40;92.50;;;22.10;100.00;98327.00;5037830;28;20057;-67
2022/07/06 09:52:09;;;;;;;2.00;0.40;;;22.40;91.70;;;23.15;100.00;98331.00;5043726;28;20057;-67
2022/07/06 09:54:40;;;;;;;2.55;0.50;;;22.60;91.80;;;21.94;100.00;98340.59;5041694;28;20095;-64
2022/07/06 09:57:08;;;;;;;1.52;0.50;;;22.60;89.80;;;22.61;100.00;98334.47;5041816;28;20104;-66
2022/07/06 09:59:36;;;;;;;4.40;0.60;;;22.60;88.60;;;22.79;100.00;98321.56;5039448;28;20056;-66
2022/07/06 10:02:07;;;;;;;2.72;0.43;;;22.60;87.60;;;22.59;100.00;98332.91;5039860;28;20033;-67
2022/07/06 10:04:35;;;;;;;2.05;0.40;;;22.60;89.50;;;23.34;100.00;98332.13;5039546;28;20060;-65
2022/07/06 10:07:04;;;;;;;4.43;0.40;;;22.90;87.90;;;22.81;100.00;98332.03;5035839;28;20056;-65
2022/07/06 10:09:31;;;;;;;2.40;0.40;;;22.60;87.90;;;22.88;100.00;98336.72;5038825;28;20118;-66
2022/07/06 10:12:00;;;;;;;2.15;0.50;;;23.00;88.90;;;22.65;100.00;98330.63;5038753;28;20203;-67
2022/07/06 10:14:30;;;;;;;3.05;0.50;;;23.10;86.20;;;22.42;100.00;98337.75;5044369;28;20049;-67
2022/07/06 10:17:00;;;;;;;3.80;0.40;;;22.90;85.50;;;23.22;100.00;98338.44;5040037;28;20049;-65
2022/07/06 10:19:29;;;;;;;2.13;0.50;;;23.10;86.40;;;23.16;100.00;98335.31;5044361;28;20534;-65
2022/07/06 10:22:01;;;;;;;2.00;0.40;;;23.70;85.90;;;23.22;100.00;98335.78;5039607;28;20102;-66